createdAt,value
2023-05-22T00:01:09.452Z,14.94
2023-05-22T00:03:42.271Z,14.92
2023-05-22T00:06:15.285Z,14.98
2023-05-22T00:08:49.574Z,15.00
2023-05-22T00:11:23.374Z,14.88
2023-05-22T00:13:56.162Z,14.90
2023-05-22T00:16:29.090Z,14.90
2023-05-22T00:19:01.986Z,14.90
2023-05-22T00:21:37.589Z,14.94
2023-05-22T00:24:11.977Z,14.69
2023-05-22T00:26:44.829Z,14.64
2023-05-22T00:29:17.696Z,14.64
2023-05-22T00:31:50.758Z,14.70
2023-05-22T00:34:23.747Z,14.53
2023-05-22T00:36:56.778Z,14.52
2023-05-22T00:39:31.122Z,14.50
2023-05-22T00:42:03.969Z,14.54
2023-05-22T00:44:36.749Z,14.32
2023-05-22T00:47:09.877Z,14.48
2023-05-22T00:49:44.041Z,14.38
2023-05-22T00:52:18.098Z,14.28
2023-05-22T00:54:54.867Z,14.36
2023-05-22T00:57:28.927Z,14.43
2023-05-22T01:00:02.304Z,13.99
2023-05-22T01:02:37.195Z,14.19
2023-05-22T01:05:13.464Z,14.17
2023-05-22T01:07:47.009Z,13.99
2023-05-22T01:10:21.445Z,14.07
2023-05-22T01:13:02.943Z,13.77
2023-05-22T01:15:44.492Z,13.89
2023-05-22T01:18:25.084Z,13.91
2023-05-22T01:21:10.261Z,13.91
2023-05-22T01:24:31.946Z,13.74
2023-05-22T01:27:38.981Z,13.74
2023-05-22T01:30:41.691Z,13.68
2023-05-22T01:33:18.255Z,13.47
2023-05-22T01:35:54.080Z,13.29
2023-05-22T01:38:27.152Z,13.35
2023-05-22T01:41:00.452Z,13.19
2023-05-22T01:43:33.462Z,13.24
2023-05-22T01:46:07.078Z,13.34
2023-05-22T01:48:41.444Z,13.10
2023-05-22T01:51:20.156Z,13.29
2023-05-22T01:53:59.082Z,13.40
2023-05-22T01:56:38.069Z,13.36
2023-05-22T01:59:16.005Z,13.43
2023-05-22T02:01:51.836Z,13.45
2023-05-22T02:04:28.972Z,13.45
2023-05-22T02:07:03.988Z,13.40
2023-05-22T02:09:38.459Z,13.46
2023-05-22T02:12:12.452Z,13.29
2023-05-22T02:14:46.005Z,13.22
2023-05-22T02:17:19.091Z,13.19
2023-05-22T02:19:53.288Z,13.32
2023-05-22T02:22:26.727Z,13.29
2023-05-22T02:24:59.743Z,13.14
2023-05-22T02:27:32.985Z,13.24
2023-05-22T02:30:07.616Z,13.13
2023-05-22T02:32:41.149Z,12.99
2023-05-22T02:35:15.977Z,12.91
2023-05-22T02:37:49.023Z,12.91
2023-05-22T02:40:21.948Z,12.93
2023-05-22T02:42:56.287Z,13.04
2023-05-22T02:45:30.648Z,12.99
2023-05-22T02:48:04.015Z,12.89
2023-05-22T02:50:39.684Z,12.85
2023-05-22T02:53:14.422Z,13.00
2023-05-22T02:55:48.409Z,12.71
2023-05-22T02:58:23.252Z,12.85
2023-05-22T03:00:57.437Z,12.64
2023-05-22T03:03:31.466Z,12.57
2023-05-22T03:06:06.335Z,12.68
2023-05-22T03:08:43.476Z,12.78
2023-05-22T03:11:16.294Z,12.61
2023-05-22T03:13:49.157Z,12.73
2023-05-22T03:16:22.132Z,12.68
2023-05-22T03:19:08.708Z,12.77
2023-05-22T03:21:44.508Z,12.58
2023-05-22T03:24:17.737Z,12.72
2023-05-22T03:26:50.538Z,12.54
2023-05-22T03:29:30.169Z,12.45
2023-05-22T03:32:04.549Z,12.57
2023-05-22T03:34:37.825Z,12.45
2023-05-22T03:37:15.061Z,12.46
2023-05-22T03:39:48.220Z,12.43
2023-05-22T03:42:31.952Z,12.44
2023-05-22T03:45:06.050Z,12.45
2023-05-22T03:47:39.291Z,12.53
2023-05-22T03:50:12.493Z,12.43
2023-05-22T03:52:47.374Z,12.41
2023-05-22T03:55:20.242Z,12.36
2023-05-22T03:57:53.144Z,12.34
2023-05-22T04:00:26.963Z,12.51
2023-05-22T04:03:00.216Z,12.18
2023-05-22T04:05:33.538Z,12.45
2023-05-22T04:08:07.924Z,12.46
2023-05-22T04:10:41.073Z,12.42
2023-05-22T04:13:14.797Z,12.48
2023-05-22T04:15:47.818Z,12.55
2023-05-22T04:18:20.746Z,12.60
2023-05-22T04:20:53.616Z,12.39
2023-05-22T04:23:27.933Z,12.51
2023-05-22T04:26:02.396Z,12.58
2023-05-22T04:28:35.276Z,12.68
2023-05-22T04:31:08.251Z,12.80
2023-05-22T04:33:42.070Z,12.74
2023-05-22T04:36:14.969Z,12.93
2023-05-22T04:38:50.316Z,12.61
2023-05-22T04:41:26.467Z,12.81
2023-05-22T04:44:00.550Z,12.83
2023-05-22T04:46:34.642Z,12.87
2023-05-22T04:49:08.551Z,12.91
2023-05-22T04:51:41.476Z,12.71
2023-05-22T04:54:15.827Z,12.97
2023-05-22T04:56:48.660Z,12.92
2023-05-22T04:59:23.416Z,13.28
2023-05-22T05:01:56.223Z,13.19
2023-05-22T05:04:30.800Z,13.29
2023-05-22T05:07:05.110Z,13.46
2023-05-22T05:09:39.687Z,13.47
2023-05-22T05:12:12.596Z,13.55
2023-05-22T05:14:45.540Z,13.48
2023-05-22T05:17:22.508Z,13.30
2023-05-22T05:19:55.592Z,13.48
2023-05-22T05:22:29.410Z,13.41
2023-05-22T05:25:05.609Z,13.63
2023-05-22T05:27:38.954Z,13.65
2023-05-22T05:30:12.196Z,13.73
2023-05-22T05:33:09.833Z,14.09
2023-05-22T05:35:53.736Z,14.11
2023-05-22T05:38:29.947Z,14.28
2023-05-22T05:41:06.190Z,14.48
2023-05-22T05:43:45.545Z,14.60
2023-05-22T05:46:30.776Z,14.95
2023-05-22T05:49:10.133Z,15.38
2023-05-22T05:51:44.243Z,15.59
2023-05-22T05:54:17.938Z,15.71
2023-05-22T05:56:53.508Z,15.85
2023-05-22T05:59:26.580Z,15.95
2023-05-22T06:02:06.138Z,15.88
2023-05-22T06:04:39.991Z,15.98
2023-05-22T06:07:13.694Z,16.31
2023-05-22T06:09:51.645Z,16.17
2023-05-22T06:12:42.722Z,16.68
2023-05-22T06:15:15.687Z,16.92
2023-05-22T06:17:48.903Z,16.88
2023-05-22T06:20:22.380Z,17.01
2023-05-22T06:22:55.606Z,17.25
2023-05-22T06:25:30.118Z,17.35
2023-05-22T06:28:06.085Z,17.47
2023-05-22T06:30:43.749Z,17.95
2023-05-22T06:33:21.403Z,17.81
2023-05-22T06:35:55.482Z,17.96
2023-05-22T06:38:28.760Z,18.15
2023-05-22T06:41:01.660Z,18.25
2023-05-22T06:43:36.117Z,18.75
2023-05-22T06:46:18.445Z,18.96
2023-05-22T06:48:57.244Z,18.85
2023-05-22T06:51:32.677Z,19.15
2023-05-22T06:54:13.816Z,19.28
2023-05-22T06:56:49.311Z,19.58
2023-05-22T06:59:24.944Z,19.68
2023-05-22T07:02:18.047Z,19.58
2023-05-22T07:05:09.877Z,19.98
2023-05-22T07:07:53.886Z,20.46
2023-05-22T07:10:27.832Z,21.13
2023-05-22T07:13:02.833Z,20.69
2023-05-22T07:15:38.544Z,21.19
2023-05-22T07:18:13.654Z,21.64
2023-05-22T07:20:47.956Z,21.61
2023-05-22T07:23:26.207Z,21.56
2023-05-22T07:25:59.462Z,21.91
2023-05-22T07:28:38.594Z,21.86
2023-05-22T07:31:19.661Z,22.37
2023-05-22T07:33:54.037Z,22.43
2023-05-22T07:36:27.467Z,22.33
2023-05-22T07:39:00.357Z,22.69
2023-05-22T07:41:33.223Z,22.45
2023-05-22T07:44:06.472Z,22.60
2023-05-22T07:46:44.857Z,23.09
2023-05-22T07:49:23.438Z,22.85
2023-05-22T07:51:57.103Z,23.23
2023-05-22T07:54:31.840Z,22.96
2023-05-22T07:57:05.035Z,23.16
2023-05-22T07:59:44.079Z,23.77
2023-05-22T08:02:18.639Z,23.83
2023-05-22T08:04:51.688Z,24.19
2023-05-22T08:07:24.584Z,24.12
2023-05-22T08:09:57.402Z,24.12
2023-05-22T08:12:30.267Z,24.62
2023-05-22T08:15:03.742Z,24.25
2023-05-22T08:17:37.984Z,24.86
2023-05-22T08:20:13.137Z,24.34
2023-05-22T08:22:46.536Z,24.62
2023-05-22T08:25:19.564Z,25.09
2023-05-22T08:27:52.489Z,25.49
2023-05-22T08:30:25.464Z,25.34
2023-05-22T08:32:59.914Z,25.19
2023-05-22T08:35:32.894Z,25.35
2023-05-22T08:38:05.767Z,25.81
2023-05-22T08:40:40.890Z,26.31
2023-05-22T08:43:15.504Z,26.65
2023-05-22T08:45:52.580Z,25.80
2023-05-22T08:48:31.132Z,24.81
2023-05-22T08:51:06.006Z,25.20
2023-05-22T08:53:41.668Z,26.05
2023-05-22T08:56:14.909Z,26.78
2023-05-22T08:58:47.907Z,26.92
2023-05-22T09:01:21.397Z,26.60
2023-05-22T09:03:56.973Z,26.83
2023-05-22T09:06:30.192Z,26.84
2023-05-22T09:09:03.329Z,26.17
2023-05-22T09:11:36.701Z,26.06
2023-05-22T09:14:09.803Z,26.84
2023-05-22T09:16:47.118Z,27.09
2023-05-22T09:19:21.807Z,27.89
2023-05-22T09:22:03.265Z,27.29
2023-05-22T09:24:39.870Z,26.21
2023-05-22T09:27:13.157Z,26.92
2023-05-22T09:29:50.336Z,27.49
2023-05-22T09:32:23.542Z,27.52
2023-05-22T09:35:03.515Z,28.01
2023-05-22T09:37:37.481Z,27.59
2023-05-22T09:40:14.194Z,27.69
2023-05-22T09:42:46.998Z,28.12
2023-05-22T09:45:22.436Z,28.86
2023-05-22T09:47:55.399Z,27.88
2023-05-22T09:50:29.678Z,27.86
2023-05-22T09:53:03.964Z,28.36
2023-05-22T09:55:38.200Z,29.82
2023-05-22T09:58:14.813Z,28.58
2023-05-22T10:00:49.972Z,28.96
2023-05-22T10:03:25.037Z,28.88
2023-05-22T10:06:01.308Z,29.41
2023-05-22T10:08:40.835Z,29.31
2023-05-22T10:11:13.958Z,29.07
2023-05-22T10:13:47.537Z,29.16
2023-05-22T10:16:21.190Z,29.10
2023-05-22T10:18:55.354Z,29.22
2023-05-22T10:21:31.968Z,29.46
2023-05-22T10:24:07.045Z,29.37
2023-05-22T10:26:40.178Z,30.25
2023-05-22T10:29:17.877Z,30.28
2023-05-22T10:31:56.725Z,30.75
2023-05-22T10:34:44.622Z,31.26
2023-05-22T10:37:30.941Z,30.85
2023-05-22T10:40:08.180Z,29.75
2023-05-22T10:42:41.538Z,29.93
2023-05-22T10:45:14.858Z,28.91
2023-05-22T10:47:47.785Z,30.65
2023-05-22T10:50:20.673Z,29.97
2023-05-22T10:53:20.107Z,30.06
2023-05-22T10:55:54.255Z,29.75
2023-05-22T10:58:28.502Z,30.48
2023-05-22T11:01:15.033Z,30.95
2023-05-22T11:03:55.837Z,30.67
2023-05-22T11:06:36.524Z,30.83
2023-05-22T11:09:31.008Z,31.19
2023-05-22T11:12:16.387Z,30.23
2023-05-22T11:14:51.676Z,30.25
2023-05-22T11:17:25.985Z,30.31
2023-05-22T11:20:00.934Z,30.89
2023-05-22T11:22:35.973Z,29.41
2023-05-22T11:25:12.097Z,30.68
2023-05-22T11:27:45.742Z,29.65
2023-05-22T11:30:18.912Z,30.38
2023-05-22T11:32:52.053Z,30.41
2023-05-22T11:35:25.910Z,29.64
2023-05-22T11:37:58.924Z,29.76
2023-05-22T11:40:33.173Z,30.58
2023-05-22T11:43:06.097Z,30.81
2023-05-22T11:45:38.927Z,30.88
2023-05-22T11:48:14.651Z,30.82
2023-05-22T11:50:48.553Z,31.03
2023-05-22T11:53:21.949Z,31.27
2023-05-22T11:55:56.240Z,31.30
2023-05-22T11:58:29.713Z,31.83
2023-05-22T12:01:03.580Z,30.97
2023-05-22T12:03:36.546Z,30.50
2023-05-22T12:06:10.594Z,31.49
2023-05-22T12:08:43.870Z,32.31
2023-05-22T12:11:18.241Z,32.63
2023-05-22T12:14:00.988Z,32.28
2023-05-22T12:16:37.160Z,31.86
2023-05-22T12:19:11.310Z,31.40
2023-05-22T12:21:45.832Z,30.75
2023-05-22T12:24:23.274Z,32.16
2023-05-22T12:26:57.946Z,32.67
2023-05-22T12:29:30.822Z,31.82
2023-05-22T12:32:04.765Z,32.58
2023-05-22T12:34:44.541Z,33.01
2023-05-22T12:37:21.580Z,31.81
2023-05-22T12:39:55.726Z,32.53
2023-05-22T12:42:30.288Z,32.52
2023-05-22T12:45:03.213Z,32.82
2023-05-22T12:47:36.077Z,33.15
2023-05-22T12:50:10.270Z,31.54
2023-05-22T12:52:43.285Z,30.92
2023-05-22T12:55:16.276Z,31.77
2023-05-22T12:57:50.808Z,31.06
2023-05-22T13:00:23.942Z,31.25
2023-05-22T13:02:57.104Z,31.85
2023-05-22T13:05:30.065Z,30.63
2023-05-22T13:08:03.025Z,31.12
2023-05-22T13:10:36.413Z,31.89
2023-05-22T13:13:10.711Z,32.78
2023-05-22T13:15:43.583Z,31.70
2023-05-22T13:18:17.439Z,30.73
2023-05-22T13:20:50.340Z,32.15
2023-05-22T13:23:23.394Z,31.24
2023-05-22T13:25:56.480Z,32.01
2023-05-22T13:28:31.025Z,31.47
2023-05-22T13:31:04.159Z,31.56
2023-05-22T13:33:40.311Z,31.27
2023-05-22T13:36:15.702Z,32.50
2023-05-22T13:38:48.606Z,32.21
2023-05-22T13:41:21.804Z,31.99
2023-05-22T13:43:57.700Z,32.60
2023-05-22T13:46:30.872Z,32.14
2023-05-22T13:49:03.894Z,33.07
2023-05-22T13:51:37.911Z,33.09
2023-05-22T13:54:11.181Z,33.09
2023-05-22T13:56:44.082Z,32.32
2023-05-22T13:59:18.399Z,31.28
2023-05-22T14:01:51.347Z,30.87
2023-05-22T14:04:24.254Z,31.07
2023-05-22T14:06:57.036Z,31.31
2023-05-22T14:09:31.533Z,31.33
2023-05-22T14:12:05.669Z,31.50
2023-05-22T14:14:39.867Z,31.88
2023-05-22T14:17:12.811Z,32.33
2023-05-22T14:19:45.733Z,32.29
2023-05-22T14:22:18.776Z,31.78
2023-05-22T14:24:51.636Z,31.95
2023-05-22T14:27:24.539Z,31.39
2023-05-22T14:29:58.702Z,31.54
2023-05-22T14:32:31.551Z,32.79
2023-05-22T14:35:04.608Z,31.75
2023-05-22T14:37:37.857Z,32.93
2023-05-22T14:40:11.733Z,32.66
2023-05-22T14:42:44.512Z,32.41
2023-05-22T14:45:18.636Z,32.80
2023-05-22T14:47:51.486Z,33.13
2023-05-22T14:50:25.063Z,33.63
2023-05-22T14:52:58.428Z,32.22
2023-05-22T14:55:31.869Z,33.02
2023-05-22T14:58:04.610Z,32.30
2023-05-22T15:00:38.893Z,33.17
2023-05-22T15:03:12.933Z,33.55
2023-05-22T15:05:45.914Z,31.96
2023-05-22T15:08:20.593Z,31.62
2023-05-22T15:10:53.583Z,31.45
2023-05-22T15:13:26.465Z,31.00
2023-05-22T15:16:00.650Z,30.83
2023-05-22T15:18:33.495Z,31.65
2023-05-22T15:21:06.473Z,31.64
2023-05-22T15:23:39.286Z,31.61
2023-05-22T15:26:12.362Z,31.24
2023-05-22T15:28:45.184Z,31.62
2023-05-22T15:31:19.864Z,31.50
2023-05-22T15:33:52.639Z,31.49
2023-05-22T15:36:25.422Z,31.60
2023-05-22T15:38:58.226Z,31.37
2023-05-22T15:41:31.011Z,30.90
2023-05-22T15:44:03.777Z,31.77
2023-05-22T15:46:38.997Z,31.30
2023-05-22T15:49:11.860Z,31.98
2023-05-22T15:51:44.681Z,31.87
2023-05-22T15:54:17.523Z,31.40
2023-05-22T15:56:50.325Z,31.01
2023-05-22T15:59:23.397Z,30.96
2023-05-22T16:01:57.930Z,30.56
2023-05-22T16:04:31.205Z,30.63
2023-05-22T16:07:04.076Z,31.08
2023-05-22T16:09:36.875Z,30.67
2023-05-22T16:12:10.482Z,30.39
2023-05-22T16:14:43.301Z,29.86
2023-05-22T16:17:17.573Z,30.20
2023-05-22T16:20:11.961Z,29.86
2023-05-22T16:22:48.889Z,30.26
2023-05-22T16:26:03.930Z,29.85
2023-05-22T16:28:37.165Z,29.39
2023-05-22T16:31:10.214Z,28.90
2023-05-22T16:33:44.636Z,28.83
2023-05-22T16:36:17.900Z,29.18
2023-05-22T16:38:50.837Z,28.94
2023-05-22T16:41:23.920Z,28.50
2023-05-22T16:43:57.074Z,28.81
2023-05-22T16:46:30.124Z,28.10
2023-05-22T16:49:04.411Z,28.09
2023-05-22T16:51:37.329Z,28.57
2023-05-22T16:54:10.104Z,28.35
2023-05-22T16:56:42.901Z,27.93
2023-05-22T16:59:15.868Z,27.87
2023-05-22T17:01:49.021Z,27.84
2023-05-22T17:04:23.166Z,28.03
2023-05-22T17:06:56.874Z,28.10
2023-05-22T17:09:29.937Z,27.88
2023-05-22T17:12:03.008Z,27.71
2023-05-22T17:14:35.971Z,27.46
2023-05-22T17:17:09.390Z,27.50
2023-05-22T17:19:43.610Z,27.45
2023-05-22T17:22:16.522Z,27.18
2023-05-22T17:24:49.467Z,27.33
2023-05-22T17:27:34.838Z,27.37
2023-05-22T17:30:09.659Z,27.19
2023-05-22T17:32:42.531Z,26.76
2023-05-22T17:35:16.815Z,26.69
2023-05-22T17:37:49.606Z,26.70
2023-05-22T17:40:32.490Z,26.58
2023-05-22T17:43:09.230Z,26.40
2023-05-22T17:45:44.404Z,26.16
2023-05-22T17:48:21.433Z,26.29
2023-05-22T17:50:55.769Z,26.33
2023-05-22T17:53:32.129Z,25.97
2023-05-22T17:56:05.729Z,25.77
2023-05-22T17:58:38.555Z,25.55
2023-05-22T18:01:11.388Z,25.68
2023-05-22T18:03:44.400Z,25.45
2023-05-22T18:06:18.699Z,25.36
2023-05-22T18:08:51.710Z,25.13
2023-05-22T18:11:24.556Z,24.87
2023-05-22T18:13:57.401Z,24.91
2023-05-22T18:16:30.333Z,24.65
2023-05-22T18:19:03.763Z,24.92
2023-05-22T18:21:37.978Z,24.70
2023-05-22T18:24:10.789Z,24.66
2023-05-22T18:26:43.640Z,24.39
2023-05-22T18:29:16.454Z,24.57
2023-05-22T18:31:49.530Z,24.55
2023-05-22T18:34:22.301Z,24.67
2023-05-22T18:36:57.466Z,24.50
2023-05-22T18:39:30.565Z,24.52
2023-05-22T18:42:03.492Z,24.30
2023-05-22T18:44:36.318Z,24.22
2023-05-22T18:47:09.342Z,23.96
2023-05-22T18:49:42.603Z,23.96
2023-05-22T18:52:16.819Z,23.82
2023-05-22T18:54:49.729Z,23.67
2023-05-22T18:57:22.750Z,23.73
2023-05-22T18:59:55.849Z,23.55
2023-05-22T19:02:28.747Z,23.59
2023-05-22T19:05:01.755Z,23.59
2023-05-22T19:07:36.114Z,23.18
2023-05-22T19:10:10.185Z,23.32
2023-05-22T19:12:43.044Z,23.22
2023-05-22T19:15:15.956Z,23.27
2023-05-22T19:17:48.937Z,23.37
2023-05-22T19:20:23.995Z,22.98
2023-05-22T19:22:58.487Z,22.96
2023-05-22T19:25:31.967Z,23.04
2023-05-22T19:28:05.518Z,22.94
2023-05-22T19:30:38.386Z,22.84
2023-05-22T19:33:12.012Z,22.71
2023-05-22T19:35:45.150Z,22.57
2023-05-22T19:38:22.266Z,22.49
2023-05-22T19:40:55.299Z,22.21
2023-05-22T19:43:31.299Z,22.42
2023-05-22T19:46:08.548Z,22.31
2023-05-22T19:48:41.943Z,22.25
2023-05-22T19:51:14.907Z,22.21
2023-05-22T19:53:49.268Z,22.13
2023-05-22T19:56:22.363Z,22.04
2023-05-22T19:58:55.546Z,21.80
2023-05-22T20:01:28.703Z,21.87
2023-05-22T20:04:01.720Z,21.85
2023-05-22T20:06:35.066Z,21.89
2023-05-22T20:09:09.286Z,21.64
2023-05-22T20:11:42.536Z,21.67
2023-05-22T20:14:15.412Z,21.61
2023-05-22T20:16:48.505Z,21.48
2023-05-22T20:19:21.827Z,21.38
2023-05-22T20:21:56.340Z,21.32
2023-05-22T20:24:31.024Z,21.00
2023-05-22T20:27:06.285Z,21.03
2023-05-22T20:29:39.288Z,20.86
2023-05-22T20:32:12.700Z,20.99
2023-05-22T20:34:46.493Z,20.82
2023-05-22T20:37:20.919Z,20.75
2023-05-22T20:39:55.259Z,20.83
2023-05-22T20:42:28.729Z,20.77
2023-05-22T20:45:01.557Z,20.38
2023-05-22T20:47:35.837Z,20.16
2023-05-22T20:50:10.039Z,20.54
2023-05-22T20:52:45.804Z,20.24
2023-05-22T20:55:20.032Z,20.15
2023-05-22T20:57:53.109Z,20.00
2023-05-22T21:00:26.104Z,19.70
2023-05-22T21:03:01.180Z,19.64
2023-05-22T21:05:34.057Z,19.84
2023-05-22T21:08:06.938Z,19.95
2023-05-22T21:10:41.390Z,19.95
2023-05-22T21:13:14.448Z,19.97
2023-05-22T21:15:47.264Z,19.99
2023-05-22T21:18:20.276Z,19.80
2023-05-22T21:20:53.084Z,19.67
2023-05-22T21:23:26.004Z,19.55
2023-05-22T21:26:00.287Z,19.23
2023-05-22T21:28:33.275Z,18.94
2023-05-22T21:31:06.763Z,19.38
2023-05-22T21:33:39.746Z,19.27
2023-05-22T21:36:12.553Z,19.45
2023-05-22T21:38:45.546Z,19.34
2023-05-22T21:41:19.875Z,19.46
2023-05-22T21:43:52.736Z,19.48
2023-05-22T21:46:25.602Z,19.30
2023-05-22T21:48:58.701Z,19.26
2023-05-22T21:51:32.044Z,19.30
2023-05-22T21:54:05.113Z,19.23
2023-05-22T21:56:39.560Z,19.06
2023-05-22T21:59:12.500Z,19.17
2023-05-22T22:01:45.453Z,19.06
2023-05-22T22:04:18.232Z,19.02
2023-05-22T22:06:51.069Z,19.01
2023-05-22T22:09:23.896Z,19.01
2023-05-22T22:11:58.026Z,19.04
2023-05-22T22:14:31.231Z,18.92
2023-05-22T22:17:06.024Z,18.54
2023-05-22T22:19:40.205Z,18.63
2023-05-22T22:22:13.459Z,18.76
2023-05-22T22:24:48.139Z,18.78
2023-05-22T22:27:22.467Z,18.77
2023-05-22T22:29:55.344Z,18.77
2023-05-22T22:32:28.190Z,18.38
2023-05-22T22:35:01.048Z,18.49
2023-05-22T22:37:33.940Z,18.57
2023-05-22T22:40:07.948Z,18.53
2023-05-22T22:42:42.388Z,18.57
2023-05-22T22:45:15.578Z,18.38
2023-05-22T22:47:48.479Z,18.25
2023-05-22T22:50:21.511Z,18.26
2023-05-22T22:52:54.451Z,18.25
2023-05-22T22:55:27.456Z,17.97
2023-05-22T22:58:02.527Z,18.18
2023-05-22T23:00:36.633Z,18.21
2023-05-22T23:03:09.614Z,17.96
2023-05-22T23:05:42.805Z,18.01
2023-05-22T23:08:15.963Z,18.14
2023-05-22T23:10:48.804Z,18.18
2023-05-22T23:13:23.115Z,17.88
2023-05-22T23:15:56.093Z,18.04
2023-05-22T23:18:28.952Z,17.95
2023-05-22T23:21:01.766Z,17.97
2023-05-22T23:23:34.577Z,17.70
2023-05-22T23:26:10.654Z,17.74
2023-05-22T23:28:44.824Z,17.70
2023-05-22T23:31:17.762Z,17.77
2023-05-22T23:33:50.638Z,17.93
2023-05-22T23:36:23.632Z,17.78
2023-05-22T23:38:56.481Z,17.88
2023-05-22T23:41:29.451Z,17.68
2023-05-22T23:44:03.691Z,17.59
2023-05-22T23:46:37.727Z,17.68
2023-05-22T23:49:10.613Z,17.72
2023-05-22T23:51:43.479Z,17.65
2023-05-22T23:54:16.893Z,17.63
2023-05-22T23:56:49.748Z,17.66
2023-05-22T23:59:23.958Z,17.87
